Terminal Aerodrome Forecast
Issued by NWS Pocatello, ID

Home | Current Version | Previous Version | Text Only | Print | Product List | Glossary On
Versions: 1 2 3 4 5 6 7 8 9 10 11 12 13
000
FTUS45 KPIH 292320
TAFIDA
TAF
KIDA 292320Z 3000/3024 21011KT P6SM -SHRA VCTS OVC040CB
     FM300300 20008KT P6SM VCSH OVC070
     FM301700 01014KT P6SM VCSH OVC060
     FM302100 02012KT P6SM VCTS SCT040CB BKN080=

USA.gov is the U.S. government's official web portal to all federal, state and local government web resources and services.